sensor_id;sensor_type;location;lat;lon;timestamp;P1;durP1;ratioP1;P2;durP2;ratioP2
58208;SDS011;44006;52.028;4.696;2023-04-25T00:02:00;16.83;;;4.20;;
58208;SDS011;44006;52.028;4.696;2023-04-25T00:04:30;18.52;;;4.25;;
58208;SDS011;44006;52.028;4.696;2023-04-25T00:06:58;18.27;;;4.53;;
58208;SDS011;44006;52.028;4.696;2023-04-25T00:09:26;18.48;;;4.22;;
58208;SDS011;44006;52.028;4.696;2023-04-25T00:11:57;18.23;;;4.47;;
58208;SDS011;44006;52.028;4.696;2023-04-25T00:14:23;23.60;;;4.70;;
58208;SDS011;44006;52.028;4.696;2023-04-25T00:16:48;18.58;;;4.20;;
58208;SDS011;44006;52.028;4.696;2023-04-25T00:19:13;17.23;;;4.10;;
58208;SDS011;44006;52.028;4.696;2023-04-25T00:21:39;17.35;;;4.40;;
58208;SDS011;44006;52.028;4.696;2023-04-25T00:24:06;23.10;;;4.38;;
58208;SDS011;44006;52.028;4.696;2023-04-25T00:26:31;17.10;;;4.00;;
58208;SDS011;44006;52.028;4.696;2023-04-25T00:28:56;15.55;;;4.53;;
58208;SDS011;44006;52.028;4.696;2023-04-25T00:31:21;17.38;;;4.43;;
58208;SDS011;44006;52.028;4.696;2023-04-25T00:33:47;17.10;;;4.25;;
58208;SDS011;44006;52.028;4.696;2023-04-25T00:36:13;16.98;;;3.97;;
58208;SDS011;44006;52.028;4.696;2023-04-25T00:38:39;16.00;;;3.90;;
58208;SDS011;44006;52.028;4.696;2023-04-25T00:41:05;18.42;;;4.10;;
58208;SDS011;44006;52.028;4.696;2023-04-25T00:43:31;15.85;;;3.45;;
58208;SDS011;44006;52.028;4.696;2023-04-25T00:45:57;16.63;;;4.13;;
58208;SDS011;44006;52.028;4.696;2023-04-25T00:48:24;12.60;;;4.13;;
58208;SDS011;44006;52.028;4.696;2023-04-25T00:50:53;18.25;;;3.92;;
58208;SDS011;44006;52.028;4.696;2023-04-25T00:53:19;15.13;;;4.13;;
58208;SDS011;44006;52.028;4.696;2023-04-25T00:55:45;22.52;;;4.20;;
58208;SDS011;44006;52.028;4.696;2023-04-25T00:58:10;19.95;;;4.00;;
58208;SDS011;44006;52.028;4.696;2023-04-25T01:00:36;20.15;;;4.10;;
58208;SDS011;44006;52.028;4.696;2023-04-25T01:03:02;21.60;;;4.30;;
58208;SDS011;44006;52.028;4.696;2023-04-25T01:05:28;15.32;;;4.25;;
58208;SDS011;44006;52.028;4.696;2023-04-25T01:07:54;16.65;;;3.75;;
58208;SDS011;44006;52.028;4.696;2023-04-25T01:10:20;17.40;;;4.70;;
58208;SDS011;44006;52.028;4.696;2023-04-25T01:12:46;18.20;;;5.80;;
58208;SDS011;44006;52.028;4.696;2023-04-25T01:15:11;14.02;;;4.25;;
58208;SDS011;44006;52.028;4.696;2023-04-25T01:17:37;17.13;;;4.13;;
58208;SDS011;44006;52.028;4.696;2023-04-25T01:20:03;17.92;;;4.38;;
58208;SDS011;44006;52.028;4.696;2023-04-25T01:22:29;12.30;;;4.18;;
58208;SDS011;44006;52.028;4.696;2023-04-25T01:24:54;13.88;;;3.55;;
58208;SDS011;44006;52.028;4.696;2023-04-25T01:27:20;15.50;;;3.63;;
58208;SDS011;44006;52.028;4.696;2023-04-25T01:29:46;14.43;;;3.80;;
58208;SDS011;44006;52.028;4.696;2023-04-25T01:32:12;17.52;;;4.25;;
58208;SDS011;44006;52.028;4.696;2023-04-25T01:34:38;18.00;;;3.78;;
58208;SDS011;44006;52.028;4.696;2023-04-25T01:37:03;18.20;;;4.00;;
58208;SDS011;44006;52.028;4.696;2023-04-25T01:39:29;14.68;;;3.85;;
58208;SDS011;44006;52.028;4.696;2023-04-25T01:41:55;15.07;;;4.50;;
58208;SDS011;44006;52.028;4.696;2023-04-25T01:44:21;11.93;;;3.67;;
58208;SDS011;44006;52.028;4.696;2023-04-25T01:46:46;14.48;;;3.42;;
58208;SDS011;44006;52.028;4.696;2023-04-25T01:49:11;13.25;;;3.10;;
58208;SDS011;44006;52.028;4.696;2023-04-25T01:51:37;9.73;;;3.13;;
58208;SDS011;44006;52.028;4.696;2023-04-25T01:54:03;16.48;;;4.25;;
58208;SDS011;44006;52.028;4.696;2023-04-25T01:56:32;20.60;;;4.53;;
58208;SDS011;44006;52.028;4.696;2023-04-25T01:58:57;9.95;;;3.20;;
58208;SDS011;44006;52.028;4.696;2023-04-25T02:01:23;16.05;;;3.50;;
58208;SDS011;44006;52.028;4.696;2023-04-25T02:03:48;14.13;;;3.10;;
58208;SDS011;44006;52.028;4.696;2023-04-25T02:06:13;16.45;;;3.58;;
58208;SDS011;44006;52.028;4.696;2023-04-25T02:08:38;14.77;;;3.88;;
58208;SDS011;44006;52.028;4.696;2023-04-25T02:11:04;14.35;;;3.38;;
58208;SDS011;44006;52.028;4.696;2023-04-25T02:13:29;19.98;;;3.80;;
58208;SDS011;44006;52.028;4.696;2023-04-25T02:15:54;15.00;;;3.97;;
58208;SDS011;44006;52.028;4.696;2023-04-25T02:18:20;13.93;;;3.17;;
58208;SDS011;44006;52.028;4.696;2023-04-25T02:20:46;15.15;;;3.83;;
58208;SDS011;44006;52.028;4.696;2023-04-25T02:23:11;14.13;;;3.22;;
58208;SDS011;44006;52.028;4.696;2023-04-25T02:25:36;13.77;;;3.42;;
58208;SDS011;44006;52.028;4.696;2023-04-25T02:28:02;14.73;;;3.40;;
58208;SDS011;44006;52.028;4.696;2023-04-25T02:30:27;14.85;;;3.33;;
58208;SDS011;44006;52.028;4.696;2023-04-25T02:32:53;17.30;;;3.70;;
58208;SDS011;44006;52.028;4.696;2023-04-25T02:35:18;16.88;;;3.90;;
58208;SDS011;44006;52.028;4.696;2023-04-25T02:37:45;16.27;;;4.03;;
58208;SDS011;44006;52.028;4.696;2023-04-25T02:40:10;17.90;;;3.50;;
58208;SDS011;44006;52.028;4.696;2023-04-25T02:42:35;16.65;;;3.80;;
58208;SDS011;44006;52.028;4.696;2023-04-25T02:45:01;14.15;;;3.63;;
58208;SDS011;44006;52.028;4.696;2023-04-25T02:47:26;14.43;;;4.07;;
58208;SDS011;44006;52.028;4.696;2023-04-25T02:49:52;13.43;;;3.45;;
58208;SDS011;44006;52.028;4.696;2023-04-25T02:52:17;16.65;;;3.90;;
58208;SDS011;44006;52.028;4.696;2023-04-25T02:54:42;14.60;;;3.58;;
58208;SDS011;44006;52.028;4.696;2023-04-25T02:57:08;10.05;;;3.92;;
58208;SDS011;44006;52.028;4.696;2023-04-25T02:59:33;8.85;;;3.53;;
58208;SDS011;44006;52.028;4.696;2023-04-25T03:01:59;19.00;;;3.92;;
58208;SDS011;44006;52.028;4.696;2023-04-25T03:04:24;12.45;;;3.65;;
58208;SDS011;44006;52.028;4.696;2023-04-25T03:06:51;13.43;;;2.90;;
58208;SDS011;44006;52.028;4.696;2023-04-25T03:09:16;12.52;;;4.05;;
58208;SDS011;44006;52.028;4.696;2023-04-25T03:11:41;14.32;;;3.78;;
58208;SDS011;44006;52.028;4.696;2023-04-25T03:14:08;12.07;;;3.20;;
58208;SDS011;44006;52.028;4.696;2023-04-25T03:16:38;14.27;;;3.17;;
58208;SDS011;44006;52.028;4.696;2023-04-25T03:19:04;14.40;;;3.60;;
58208;SDS011;44006;52.028;4.696;2023-04-25T03:21:29;20.20;;;3.55;;
58208;SDS011;44006;52.028;4.696;2023-04-25T03:23:57;12.32;;;2.95;;
58208;SDS011;44006;52.028;4.696;2023-04-25T03:26:22;11.70;;;2.92;;
58208;SDS011;44006;52.028;4.696;2023-04-25T03:28:47;15.18;;;3.20;;
58208;SDS011;44006;52.028;4.696;2023-04-25T03:31:12;14.35;;;3.40;;
58208;SDS011;44006;52.028;4.696;2023-04-25T03:33:39;13.02;;;3.53;;
58208;SDS011;44006;52.028;4.696;2023-04-25T03:36:04;12.13;;;2.88;;
58208;SDS011;44006;52.028;4.696;2023-04-25T03:38:30;9.45;;;2.42;;
58208;SDS011;44006;52.028;4.696;2023-04-25T03:40:56;17.05;;;2.70;;
58208;SDS011;44006;52.028;4.696;2023-04-25T03:43:22;12.27;;;2.80;;
58208;SDS011;44006;52.028;4.696;2023-04-25T03:45:47;16.10;;;2.53;;
58208;SDS011;44006;52.028;4.696;2023-04-25T03:48:13;14.60;;;2.72;;
58208;SDS011;44006;52.028;4.696;2023-04-25T03:50:39;12.20;;;2.50;;
58208;SDS011;44006;52.028;4.696;2023-04-25T03:53:06;9.60;;;2.28;;
58208;SDS011;44006;52.028;4.696;2023-04-25T03:55:31;12.23;;;2.53;;
58208;SDS011;44006;52.028;4.696;2023-04-25T03:57:57;15.00;;;2.70;;
58208;SDS011;44006;52.028;4.696;2023-04-25T04:00:23;13.00;;;2.70;;
58208;SDS011;44006;52.028;4.696;2023-04-25T04:02:48;10.70;;;2.63;;
58208;SDS011;44006;52.028;4.696;2023-04-25T04:05:13;8.50;;;2.67;;
58208;SDS011;44006;52.028;4.696;2023-04-25T04:07:39;11.30;;;2.50;;
58208;SDS011;44006;52.028;4.696;2023-04-25T04:10:11;6.63;;;1.95;;
58208;SDS011;44006;52.028;4.696;2023-04-25T04:12:37;12.20;;;2.30;;
58208;SDS011;44006;52.028;4.696;2023-04-25T04:15:03;19.10;;;4.32;;
58208;SDS011;44006;52.028;4.696;2023-04-25T04:17:29;10.15;;;2.92;;
58208;SDS011;44006;52.028;4.696;2023-04-25T04:19:55;9.20;;;1.95;;
58208;SDS011;44006;52.028;4.696;2023-04-25T04:22:21;12.95;;;2.55;;
58208;SDS011;44006;52.028;4.696;2023-04-25T04:24:46;13.27;;;2.53;;
58208;SDS011;44006;52.028;4.696;2023-04-25T04:27:12;14.48;;;3.08;;
58208;SDS011;44006;52.028;4.696;2023-04-25T04:29:38;14.65;;;2.83;;
58208;SDS011;44006;52.028;4.696;2023-04-25T04:32:04;13.65;;;3.15;;
58208;SDS011;44006;52.028;4.696;2023-04-25T04:34:29;10.35;;;2.47;;
58208;SDS011;44006;52.028;4.696;2023-04-25T04:36:56;10.95;;;2.50;;
58208;SDS011;44006;52.028;4.696;2023-04-25T04:39:21;11.38;;;2.45;;
58208;SDS011;44006;52.028;4.696;2023-04-25T04:41:47;14.93;;;2.28;;
58208;SDS011;44006;52.028;4.696;2023-04-25T04:44:12;11.80;;;2.13;;
58208;SDS011;44006;52.028;4.696;2023-04-25T04:46:39;14.50;;;2.72;;
58208;SDS011;44006;52.028;4.696;2023-04-25T04:49:08;16.35;;;2.55;;
58208;SDS011;44006;52.028;4.696;2023-04-25T04:51:35;18.85;;;2.80;;
58208;SDS011;44006;52.028;4.696;2023-04-25T04:54:00;16.08;;;2.45;;
58208;SDS011;44006;52.028;4.696;2023-04-25T04:56:28;9.73;;;2.58;;
58208;SDS011;44006;52.028;4.696;2023-04-25T04:58:53;13.18;;;2.65;;
58208;SDS011;44006;52.028;4.696;2023-04-25T05:01:18;11.93;;;2.35;;
58208;SDS011;44006;52.028;4.696;2023-04-25T05:03:44;11.77;;;2.20;;
58208;SDS011;44006;52.028;4.696;2023-04-25T05:06:10;15.88;;;2.47;;
58208;SDS011;44006;52.028;4.696;2023-04-25T05:08:36;9.82;;;2.65;;
58208;SDS011;44006;52.028;4.696;2023-04-25T05:11:04;8.52;;;2.05;;
58208;SDS011;44006;52.028;4.696;2023-04-25T05:13:29;12.43;;;2.50;;
58208;SDS011;44006;52.028;4.696;2023-04-25T05:15:55;12.88;;;2.50;;
58208;SDS011;44006;52.028;4.696;2023-04-25T05:18:20;10.85;;;2.22;;
58208;SDS011;44006;52.028;4.696;2023-04-25T05:20:45;13.10;;;2.53;;
58208;SDS011;44006;52.028;4.696;2023-04-25T05:23:10;6.82;;;2.35;;
58208;SDS011;44006;52.028;4.696;2023-04-25T05:25:36;11.50;;;3.22;;
58208;SDS011;44006;52.028;4.696;2023-04-25T05:28:01;8.55;;;2.45;;
58208;SDS011;44006;52.028;4.696;2023-04-25T05:30:26;11.55;;;2.47;;
58208;SDS011;44006;52.028;4.696;2023-04-25T05:32:51;14.05;;;3.13;;
58208;SDS011;44006;52.028;4.696;2023-04-25T05:35:17;10.52;;;2.67;;
58208;SDS011;44006;52.028;4.696;2023-04-25T05:37:42;14.27;;;3.15;;
58208;SDS011;44006;52.028;4.696;2023-04-25T05:40:08;13.02;;;2.90;;
58208;SDS011;44006;52.028;4.696;2023-04-25T05:42:33;13.75;;;2.67;;
58208;SDS011;44006;52.028;4.696;2023-04-25T05:44:59;10.27;;;2.58;;
58208;SDS011;44006;52.028;4.696;2023-04-25T05:47:24;13.82;;;2.67;;
58208;SDS011;44006;52.028;4.696;2023-04-25T05:49:49;12.93;;;2.38;;
58208;SDS011;44006;52.028;4.696;2023-04-25T05:52:15;10.32;;;2.58;;
58208;SDS011;44006;52.028;4.696;2023-04-25T05:54:40;14.80;;;2.45;;
58208;SDS011;44006;52.028;4.696;2023-04-25T05:57:06;7.10;;;1.70;;
58208;SDS011;44006;52.028;4.696;2023-04-25T05:59:31;7.07;;;1.67;;
58208;SDS011;44006;52.028;4.696;2023-04-25T06:01:57;8.50;;;2.00;;
58208;SDS011;44006;52.028;4.696;2023-04-25T06:04:23;13.15;;;2.20;;
58208;SDS011;44006;52.028;4.696;2023-04-25T06:06:48;8.70;;;2.25;;
58208;SDS011;44006;52.028;4.696;2023-04-25T06:09:14;9.55;;;1.98;;
58208;SDS011;44006;52.028;4.696;2023-04-25T06:11:39;8.73;;;2.17;;
58208;SDS011;44006;52.028;4.696;2023-04-25T06:14:05;10.00;;;1.83;;
58208;SDS011;44006;52.028;4.696;2023-04-25T06:16:30;6.68;;;2.08;;
58208;SDS011;44006;52.028;4.696;2023-04-25T06:18:55;6.38;;;1.45;;
58208;SDS011;44006;52.028;4.696;2023-04-25T06:21:20;8.73;;;1.75;;
58208;SDS011;44006;52.028;4.696;2023-04-25T06:23:46;7.57;;;1.58;;
58208;SDS011;44006;52.028;4.696;2023-04-25T06:26:11;8.38;;;1.95;;
58208;SDS011;44006;52.028;4.696;2023-04-25T06:28:36;7.80;;;1.77;;
58208;SDS011;44006;52.028;4.696;2023-04-25T06:31:01;10.23;;;1.77;;
58208;SDS011;44006;52.028;4.696;2023-04-25T06:33:27;7.30;;;1.48;;
58208;SDS011;44006;52.028;4.696;2023-04-25T06:35:52;7.65;;;1.30;;
58208;SDS011;44006;52.028;4.696;2023-04-25T06:38:17;8.25;;;1.70;;
58208;SDS011;44006;52.028;4.696;2023-04-25T06:40:43;7.97;;;1.80;;
58208;SDS011;44006;52.028;4.696;2023-04-25T06:43:08;6.80;;;1.48;;
58208;SDS011;44006;52.028;4.696;2023-04-25T06:45:34;9.38;;;1.70;;
58208;SDS011;44006;52.028;4.696;2023-04-25T06:48:00;7.07;;;1.52;;
58208;SDS011;44006;52.028;4.696;2023-04-25T06:50:26;6.40;;;1.60;;
58208;SDS011;44006;52.028;4.696;2023-04-25T06:52:51;9.20;;;2.20;;
58208;SDS011;44006;52.028;4.696;2023-04-25T06:55:16;13.82;;;2.53;;
58208;SDS011;44006;52.028;4.696;2023-04-25T06:57:41;6.43;;;1.80;;
58208;SDS011;44006;52.028;4.696;2023-04-25T07:00:07;7.60;;;1.58;;
58208;SDS011;44006;52.028;4.696;2023-04-25T07:02:34;6.70;;;1.67;;
58208;SDS011;44006;52.028;4.696;2023-04-25T07:05:01;7.68;;;2.83;;
58208;SDS011;44006;52.028;4.696;2023-04-25T07:07:29;10.93;;;2.28;;
58208;SDS011;44006;52.028;4.696;2023-04-25T07:09:54;9.77;;;2.63;;
58208;SDS011;44006;52.028;4.696;2023-04-25T07:12:20;8.80;;;1.88;;
58208;SDS011;44006;52.028;4.696;2023-04-25T07:14:45;9.75;;;1.98;;
58208;SDS011;44006;52.028;4.696;2023-04-25T07:17:12;11.93;;;2.00;;
58208;SDS011;44006;52.028;4.696;2023-04-25T07:19:37;7.05;;;2.28;;
58208;SDS011;44006;52.028;4.696;2023-04-25T07:22:05;7.95;;;2.10;;
58208;SDS011;44006;52.028;4.696;2023-04-25T07:24:30;13.50;;;2.50;;
58208;SDS011;44006;52.028;4.696;2023-04-25T07:26:58;8.35;;;1.95;;
58208;SDS011;44006;52.028;4.696;2023-04-25T07:29:24;8.13;;;1.75;;
58208;SDS011;44006;52.028;4.696;2023-04-25T07:31:49;10.68;;;1.95;;
58208;SDS011;44006;52.028;4.696;2023-04-25T07:34:15;10.82;;;1.80;;
58208;SDS011;44006;52.028;4.696;2023-04-25T07:36:40;9.05;;;2.10;;
58208;SDS011;44006;52.028;4.696;2023-04-25T07:39:06;10.35;;;2.10;;
58208;SDS011;44006;52.028;4.696;2023-04-25T07:41:31;8.27;;;2.15;;
58208;SDS011;44006;52.028;4.696;2023-04-25T07:43:56;11.35;;;2.42;;
58208;SDS011;44006;52.028;4.696;2023-04-25T07:46:22;8.23;;;1.63;;
58208;SDS011;44006;52.028;4.696;2023-04-25T07:48:47;12.18;;;1.73;;
58208;SDS011;44006;52.028;4.696;2023-04-25T07:51:12;10.65;;;2.08;;
58208;SDS011;44006;52.028;4.696;2023-04-25T07:53:37;8.18;;;1.80;;
58208;SDS011;44006;52.028;4.696;2023-04-25T07:56:03;10.27;;;2.63;;
58208;SDS011;44006;52.028;4.696;2023-04-25T07:58:28;7.57;;;1.88;;
58208;SDS011;44006;52.028;4.696;2023-04-25T08:00:53;9.40;;;1.60;;
58208;SDS011;44006;52.028;4.696;2023-04-25T08:03:19;8.32;;;1.40;;
58208;SDS011;44006;52.028;4.696;2023-04-25T08:05:45;8.52;;;1.42;;
58208;SDS011;44006;52.028;4.696;2023-04-25T08:08:10;6.88;;;1.15;;
58208;SDS011;44006;52.028;4.696;2023-04-25T08:10:36;4.65;;;1.20;;
58208;SDS011;44006;52.028;4.696;2023-04-25T08:13:01;7.80;;;1.27;;
58208;SDS011;44006;52.028;4.696;2023-04-25T08:15:27;9.30;;;1.75;;
58208;SDS011;44006;52.028;4.696;2023-04-25T08:17:52;9.00;;;1.23;;
58208;SDS011;44006;52.028;4.696;2023-04-25T08:20:18;7.70;;;1.55;;
58208;SDS011;44006;52.028;4.696;2023-04-25T08:22:43;9.88;;;1.52;;
58208;SDS011;44006;52.028;4.696;2023-04-25T08:25:08;11.30;;;1.70;;
58208;SDS011;44006;52.028;4.696;2023-04-25T08:27:35;9.00;;;1.48;;
58208;SDS011;44006;52.028;4.696;2023-04-25T08:30:00;10.60;;;1.90;;
58208;SDS011;44006;52.028;4.696;2023-04-25T08:32:28;12.18;;;1.83;;
58208;SDS011;44006;52.028;4.696;2023-04-25T08:34:54;8.55;;;1.75;;
58208;SDS011;44006;52.028;4.696;2023-04-25T08:37:20;11.23;;;1.67;;
58208;SDS011;44006;52.028;4.696;2023-04-25T08:39:45;5.78;;;1.10;;
58208;SDS011;44006;52.028;4.696;2023-04-25T08:42:13;7.13;;;1.30;;
58208;SDS011;44006;52.028;4.696;2023-04-25T08:44:39;6.07;;;1.27;;
58208;SDS011;44006;52.028;4.696;2023-04-25T08:47:05;8.23;;;1.40;;
58208;SDS011;44006;52.028;4.696;2023-04-25T08:49:33;4.40;;;1.10;;
58208;SDS011;44006;52.028;4.696;2023-04-25T08:51:59;10.27;;;1.50;;
58208;SDS011;44006;52.028;4.696;2023-04-25T08:54:25;8.88;;;1.42;;
58208;SDS011;44006;52.028;4.696;2023-04-25T08:57:03;4.05;;;1.10;;
58208;SDS011;44006;52.028;4.696;2023-04-25T08:59:30;4.47;;;1.02;;
58208;SDS011;44006;52.028;4.696;2023-04-25T09:01:56;6.55;;;1.35;;
58208;SDS011;44006;52.028;4.696;2023-04-25T09:04:21;9.73;;;1.20;;
58208;SDS011;44006;52.028;4.696;2023-04-25T09:06:47;5.15;;;0.95;;
58208;SDS011;44006;52.028;4.696;2023-04-25T09:09:13;4.15;;;1.00;;
58208;SDS011;44006;52.028;4.696;2023-04-25T09:11:39;5.95;;;0.95;;
58208;SDS011;44006;52.028;4.696;2023-04-25T09:19:23;7.43;;;1.30;;
58208;SDS011;44006;52.028;4.696;2023-04-25T09:21:51;7.45;;;1.10;;
58208;SDS011;44006;52.028;4.696;2023-04-25T09:24:40;6.00;;;1.08;;
58208;SDS011;44006;52.028;4.696;2023-04-25T09:27:05;7.47;;;1.20;;
58208;SDS011;44006;52.028;4.696;2023-04-25T09:29:34;7.15;;;1.27;;
58208;SDS011;44006;52.028;4.696;2023-04-25T09:34:48;5.95;;;1.35;;
58208;SDS011;44006;52.028;4.696;2023-04-25T09:37:20;3.63;;;1.10;;
58208;SDS011;44006;52.028;4.696;2023-04-25T09:39:46;3.58;;;0.93;;
58208;SDS011;44006;52.028;4.696;2023-04-25T09:42:15;4.80;;;1.15;;
58208;SDS011;44006;52.028;4.696;2023-04-25T09:44:42;5.07;;;0.90;;
58208;SDS011;44006;52.028;4.696;2023-04-25T09:47:09;4.07;;;0.90;;
58208;SDS011;44006;52.028;4.696;2023-04-25T09:49:38;6.43;;;1.20;;
58208;SDS011;44006;52.028;4.696;2023-04-25T09:52:03;2.97;;;0.65;;
58208;SDS011;44006;52.028;4.696;2023-04-25T09:54:29;4.72;;;1.00;;
58208;SDS011;44006;52.028;4.696;2023-04-25T09:56:54;6.35;;;1.02;;
58208;SDS011;44006;52.028;4.696;2023-04-25T09:59:20;4.50;;;0.93;;
58208;SDS011;44006;52.028;4.696;2023-04-25T10:01:46;7.00;;;1.27;;
58208;SDS011;44006;52.028;4.696;2023-04-25T10:04:13;9.15;;;1.67;;
58208;SDS011;44006;52.028;4.696;2023-04-25T10:06:41;5.18;;;1.20;;
58208;SDS011;44006;52.028;4.696;2023-04-25T10:09:08;5.40;;;1.27;;
58208;SDS011;44006;52.028;4.696;2023-04-25T10:11:34;9.32;;;1.30;;
58208;SDS011;44006;52.028;4.696;2023-04-25T10:14:00;9.35;;;2.20;;
58208;SDS011;44006;52.028;4.696;2023-04-25T10:16:25;7.00;;;2.00;;
58208;SDS011;44006;52.028;4.696;2023-04-25T10:18:51;12.93;;;1.55;;
58208;SDS011;44006;52.028;4.696;2023-04-25T10:21:16;6.22;;;1.20;;
58208;SDS011;44006;52.028;4.696;2023-04-25T10:23:42;5.60;;;1.10;;
58208;SDS011;44006;52.028;4.696;2023-04-25T10:26:08;5.90;;;1.42;;
58208;SDS011;44006;52.028;4.696;2023-04-25T10:31:22;5.55;;;1.30;;
58208;SDS011;44006;52.028;4.696;2023-04-25T10:33:50;8.10;;;1.10;;
58208;SDS011;44006;52.028;4.696;2023-04-25T10:36:18;9.38;;;1.65;;
58208;SDS011;44006;52.028;4.696;2023-04-25T10:38:45;6.00;;;1.60;;
58208;SDS011;44006;52.028;4.696;2023-04-25T10:41:14;9.63;;;1.38;;
58208;SDS011;44006;52.028;4.696;2023-04-25T10:48:59;9.85;;;1.70;;
58208;SDS011;44006;52.028;4.696;2023-04-25T10:51:25;8.20;;;1.67;;
58208;SDS011;44006;52.028;4.696;2023-04-25T10:56:20;7.65;;;1.02;;
58208;SDS011;44006;52.028;4.696;2023-04-25T10:58:46;8.13;;;1.40;;
58208;SDS011;44006;52.028;4.696;2023-04-25T11:01:12;6.97;;;1.38;;
58208;SDS011;44006;52.028;4.696;2023-04-25T11:03:38;12.60;;;1.42;;
58208;SDS011;44006;52.028;4.696;2023-04-25T11:06:05;6.68;;;1.40;;
58208;SDS011;44006;52.028;4.696;2023-04-25T11:08:43;6.93;;;1.13;;
58208;SDS011;44006;52.028;4.696;2023-04-25T11:11:12;4.72;;;1.42;;
58208;SDS011;44006;52.028;4.696;2023-04-25T11:13:37;8.68;;;1.38;;
58208;SDS011;44006;52.028;4.696;2023-04-25T11:16:03;5.47;;;1.50;;
58208;SDS011;44006;52.028;4.696;2023-04-25T11:18:28;5.53;;;1.15;;
58208;SDS011;44006;52.028;4.696;2023-04-25T11:20:53;8.52;;;1.70;;
58208;SDS011;44006;52.028;4.696;2023-04-25T11:23:19;8.30;;;1.20;;
58208;SDS011;44006;52.028;4.696;2023-04-25T11:25:44;7.53;;;1.48;;
58208;SDS011;44006;52.028;4.696;2023-04-25T11:28:09;9.95;;;1.40;;
58208;SDS011;44006;52.028;4.696;2023-04-25T11:30:35;5.22;;;1.08;;
58208;SDS011;44006;52.028;4.696;2023-04-25T11:33:00;5.75;;;1.08;;
58208;SDS011;44006;52.028;4.696;2023-04-25T11:35:27;7.47;;;1.20;;
58208;SDS011;44006;52.028;4.696;2023-04-25T11:37:53;7.93;;;1.85;;
58208;SDS011;44006;52.028;4.696;2023-04-25T11:40:18;4.80;;;1.30;;
58208;SDS011;44006;52.028;4.696;2023-04-25T11:42:44;7.65;;;1.58;;
58208;SDS011;44006;52.028;4.696;2023-04-25T11:45:09;6.72;;;1.30;;
58208;SDS011;44006;52.028;4.696;2023-04-25T11:47:35;3.47;;;1.08;;
58208;SDS011;44006;52.028;4.696;2023-04-25T11:50:03;6.63;;;1.50;;
58208;SDS011;44006;52.028;4.696;2023-04-25T11:52:36;7.10;;;1.33;;
58208;SDS011;44006;52.028;4.696;2023-04-25T11:55:03;7.65;;;1.45;;
58208;SDS011;44006;52.028;4.696;2023-04-25T11:57:30;7.25;;;1.40;;
58208;SDS011;44006;52.028;4.696;2023-04-25T11:59:56;9.50;;;1.23;;
58208;SDS011;44006;52.028;4.696;2023-04-25T12:02:30;5.65;;;1.25;;
58208;SDS011;44006;52.028;4.696;2023-04-25T12:04:58;6.78;;;1.30;;
58208;SDS011;44006;52.028;4.696;2023-04-25T12:07:28;6.78;;;1.17;;
58208;SDS011;44006;52.028;4.696;2023-04-25T12:09:53;6.35;;;1.10;;
58208;SDS011;44006;52.028;4.696;2023-04-25T12:12:19;5.68;;;1.13;;
58208;SDS011;44006;52.028;4.696;2023-04-25T12:14:48;6.65;;;1.15;;
58208;SDS011;44006;52.028;4.696;2023-04-25T12:17:14;7.35;;;1.30;;
58208;SDS011;44006;52.028;4.696;2023-04-25T12:19:39;4.72;;;1.00;;
58208;SDS011;44006;52.028;4.696;2023-04-25T12:22:23;6.07;;;1.08;;
58208;SDS011;44006;52.028;4.696;2023-04-25T12:24:51;6.38;;;1.23;;
58208;SDS011;44006;52.028;4.696;2023-04-25T12:27:18;5.20;;;0.90;;
58208;SDS011;44006;52.028;4.696;2023-04-25T12:29:53;3.38;;;1.13;;
58208;SDS011;44006;52.028;4.696;2023-04-25T12:32:19;6.78;;;1.00;;
58208;SDS011;44006;52.028;4.696;2023-04-25T12:34:44;7.72;;;1.60;;
58208;SDS011;44006;52.028;4.696;2023-04-25T12:37:10;4.35;;;1.00;;
58208;SDS011;44006;52.028;4.696;2023-04-25T12:39:36;4.75;;;1.10;;
58208;SDS011;44006;52.028;4.696;2023-04-25T12:42:01;3.83;;;1.08;;
58208;SDS011;44006;52.028;4.696;2023-04-25T12:44:27;10.40;;;1.85;;
58208;SDS011;44006;52.028;4.696;2023-04-25T12:46:53;5.75;;;1.67;;
58208;SDS011;44006;52.028;4.696;2023-04-25T12:49:19;7.55;;;1.73;;
58208;SDS011;44006;52.028;4.696;2023-04-25T12:51:45;7.10;;;1.08;;
58208;SDS011;44006;52.028;4.696;2023-04-25T12:54:10;5.72;;;1.60;;
58208;SDS011;44006;52.028;4.696;2023-04-25T12:56:36;9.98;;;1.58;;
58208;SDS011;44006;52.028;4.696;2023-04-25T12:59:02;4.57;;;1.38;;
58208;SDS011;44006;52.028;4.696;2023-04-25T13:01:28;7.60;;;1.27;;
58208;SDS011;44006;52.028;4.696;2023-04-25T13:03:53;7.75;;;1.45;;
58208;SDS011;44006;52.028;4.696;2023-04-25T13:06:19;10.23;;;1.58;;
58208;SDS011;44006;52.028;4.696;2023-04-25T13:08:45;6.97;;;1.70;;
58208;SDS011;44006;52.028;4.696;2023-04-25T13:11:16;8.05;;;1.73;;
58208;SDS011;44006;52.028;4.696;2023-04-25T13:13:41;8.05;;;1.33;;
58208;SDS011;44006;52.028;4.696;2023-04-25T13:16:07;5.53;;;1.17;;
58208;SDS011;44006;52.028;4.696;2023-04-25T13:18:32;3.65;;;1.10;;
58208;SDS011;44006;52.028;4.696;2023-04-25T13:20:59;6.15;;;1.35;;
58208;SDS011;44006;52.028;4.696;2023-04-25T13:23:25;8.98;;;1.25;;
58208;SDS011;44006;52.028;4.696;2023-04-25T13:25:51;5.25;;;1.35;;
58208;SDS011;44006;52.028;4.696;2023-04-25T13:28:16;6.07;;;1.20;;
58208;SDS011;44006;52.028;4.696;2023-04-25T13:30:41;9.30;;;1.50;;
58208;SDS011;44006;52.028;4.696;2023-04-25T13:33:07;15.95;;;2.10;;
58208;SDS011;44006;52.028;4.696;2023-04-25T13:35:33;6.93;;;1.63;;
58208;SDS011;44006;52.028;4.696;2023-04-25T13:37:58;7.75;;;1.60;;
58208;SDS011;44006;52.028;4.696;2023-04-25T13:40:23;8.23;;;1.63;;
58208;SDS011;44006;52.028;4.696;2023-04-25T13:42:49;9.98;;;1.83;;
58208;SDS011;44006;52.028;4.696;2023-04-25T13:45:14;7.10;;;1.27;;
58208;SDS011;44006;52.028;4.696;2023-04-25T13:47:39;6.03;;;1.50;;
58208;SDS011;44006;52.028;4.696;2023-04-25T13:50:05;7.80;;;1.75;;
58208;SDS011;44006;52.028;4.696;2023-04-25T13:52:31;7.25;;;1.70;;
58208;SDS011;44006;52.028;4.696;2023-04-25T13:54:57;4.50;;;1.17;;
58208;SDS011;44006;52.028;4.696;2023-04-25T13:57:22;8.98;;;1.30;;
58208;SDS011;44006;52.028;4.696;2023-04-25T13:59:47;6.53;;;1.40;;
58208;SDS011;44006;52.028;4.696;2023-04-25T14:02:12;4.53;;;1.40;;
58208;SDS011;44006;52.028;4.696;2023-04-25T14:04:38;5.72;;;1.38;;
58208;SDS011;44006;52.028;4.696;2023-04-25T14:07:03;7.15;;;1.63;;
58208;SDS011;44006;52.028;4.696;2023-04-25T14:09:28;6.95;;;1.55;;
58208;SDS011;44006;52.028;4.696;2023-04-25T14:11:54;10.07;;;1.55;;
58208;SDS011;44006;52.028;4.696;2023-04-25T14:14:20;7.60;;;1.58;;
58208;SDS011;44006;52.028;4.696;2023-04-25T14:16:48;7.50;;;1.58;;
58208;SDS011;44006;52.028;4.696;2023-04-25T14:19:15;7.82;;;1.65;;
58208;SDS011;44006;52.028;4.696;2023-04-25T14:21:40;7.65;;;1.60;;
58208;SDS011;44006;52.028;4.696;2023-04-25T14:24:06;4.75;;;1.13;;
58208;SDS011;44006;52.028;4.696;2023-04-25T14:26:31;7.93;;;1.52;;
58208;SDS011;44006;52.028;4.696;2023-04-25T14:28:58;5.55;;;1.27;;
58208;SDS011;44006;52.028;4.696;2023-04-25T14:31:23;7.70;;;1.52;;
58208;SDS011;44006;52.028;4.696;2023-04-25T14:33:48;7.72;;;1.40;;
58208;SDS011;44006;52.028;4.696;2023-04-25T14:36:13;7.05;;;1.15;;
58208;SDS011;44006;52.028;4.696;2023-04-25T14:38:39;9.98;;;1.75;;
58208;SDS011;44006;52.028;4.696;2023-04-25T14:41:04;4.82;;;1.33;;
58208;SDS011;44006;52.028;4.696;2023-04-25T14:43:29;8.80;;;1.45;;
58208;SDS011;44006;52.028;4.696;2023-04-25T14:45:55;8.02;;;2.22;;
58208;SDS011;44006;52.028;4.696;2023-04-25T14:48:20;7.72;;;1.60;;
58208;SDS011;44006;52.028;4.696;2023-04-25T14:50:45;6.68;;;1.60;;
58208;SDS011;44006;52.028;4.696;2023-04-25T14:53:11;6.53;;;1.40;;